sensor_id;sensor_type;location;lat;lon;timestamp;P1;durP1;ratioP1;P2;durP2;ratioP2
147;SDS011;142;50.652;12.216;2023-03-12T00:02:13;0.00;;;0.00;;
147;SDS011;142;50.652;12.216;2023-03-12T00:04:41;0.00;;;0.00;;
147;SDS011;142;50.652;12.216;2023-03-12T00:07:08;0.00;;;0.00;;
147;SDS011;142;50.652;12.216;2023-03-12T00:09:38;0.00;;;0.00;;
147;SDS011;142;50.652;12.216;2023-03-12T00:12:06;0.00;;;0.00;;
147;SDS011;142;50.652;12.216;2023-03-12T00:14:33;0.00;;;0.00;;
147;SDS011;142;50.652;12.216;2023-03-12T00:17:02;0.00;;;0.00;;
147;SDS011;142;50.652;12.216;2023-03-12T00:19:30;0.00;;;0.00;;
147;SDS011;142;50.652;12.216;2023-03-12T00:21:57;0.00;;;0.00;;
147;SDS011;142;50.652;12.216;2023-03-12T00:24:24;0.00;;;0.00;;
147;SDS011;142;50.652;12.216;2023-03-12T00:26:51;0.00;;;0.00;;
147;SDS011;142;50.652;12.216;2023-03-12T00:29:18;0.00;;;0.00;;
147;SDS011;142;50.652;12.216;2023-03-12T00:31:46;0.00;;;0.00;;
147;SDS011;142;50.652;12.216;2023-03-12T00:34:17;0.00;;;0.00;;
147;SDS011;142;50.652;12.216;2023-03-12T00:36:44;0.00;;;0.00;;
147;SDS011;142;50.652;12.216;2023-03-12T00:39:11;0.00;;;0.00;;
147;SDS011;142;50.652;12.216;2023-03-12T00:41:38;0.00;;;0.00;;
147;SDS011;142;50.652;12.216;2023-03-12T00:44:06;0.00;;;0.00;;
147;SDS011;142;50.652;12.216;2023-03-12T00:46:33;0.00;;;0.00;;
147;SDS011;142;50.652;12.216;2023-03-12T00:49:00;0.00;;;0.00;;
147;SDS011;142;50.652;12.216;2023-03-12T00:51:29;0.05;;;0.03;;
147;SDS011;142;50.652;12.216;2023-03-12T00:53:56;0.00;;;0.00;;
147;SDS011;142;50.652;12.216;2023-03-12T00:56:23;0.00;;;0.00;;
147;SDS011;142;50.652;12.216;2023-03-12T00:58:51;0.00;;;0.00;;
147;SDS011;142;50.652;12.216;2023-03-12T01:01:18;0.00;;;0.00;;
147;SDS011;142;50.652;12.216;2023-03-12T01:03:45;0.00;;;0.00;;
147;SDS011;142;50.652;12.216;2023-03-12T01:06:12;0.20;;;0.10;;
147;SDS011;142;50.652;12.216;2023-03-12T01:08:41;0.00;;;0.00;;
147;SDS011;142;50.652;12.216;2023-03-12T01:11:11;0.00;;;0.00;;
147;SDS011;142;50.652;12.216;2023-03-12T01:13:38;0.00;;;0.00;;
147;SDS011;142;50.652;12.216;2023-03-12T01:16:06;0.00;;;0.00;;
147;SDS011;142;50.652;12.216;2023-03-12T01:18:33;0.00;;;0.00;;
147;SDS011;142;50.652;12.216;2023-03-12T01:21:01;0.00;;;0.00;;
147;SDS011;142;50.652;12.216;2023-03-12T01:23:28;0.00;;;0.00;;
147;SDS011;142;50.652;12.216;2023-03-12T01:25:57;0.00;;;0.00;;
147;SDS011;142;50.652;12.216;2023-03-12T01:28:24;0.00;;;0.00;;
147;SDS011;142;50.652;12.216;2023-03-12T01:30:51;0.00;;;0.00;;
147;SDS011;142;50.652;12.216;2023-03-12T01:33:19;0.00;;;0.00;;
147;SDS011;142;50.652;12.216;2023-03-12T01:35:47;0.00;;;0.00;;
147;SDS011;142;50.652;12.216;2023-03-12T01:38:15;0.00;;;0.00;;
147;SDS011;142;50.652;12.216;2023-03-12T01:40:43;0.00;;;0.00;;
147;SDS011;142;50.652;12.216;2023-03-12T01:43:22;0.00;;;0.00;;
147;SDS011;142;50.652;12.216;2023-03-12T01:48:49;0.00;;;0.00;;
147;SDS011;142;50.652;12.216;2023-03-12T01:51:20;0.00;;;0.00;;
147;SDS011;142;50.652;12.216;2023-03-12T01:53:50;0.00;;;0.00;;
147;SDS011;142;50.652;12.216;2023-03-12T01:56:22;0.00;;;0.00;;
147;SDS011;142;50.652;12.216;2023-03-12T01:58:55;0.00;;;0.00;;
147;SDS011;142;50.652;12.216;2023-03-12T02:01:28;0.00;;;0.00;;
147;SDS011;142;50.652;12.216;2023-03-12T02:03:56;0.00;;;0.00;;
147;SDS011;142;50.652;12.216;2023-03-12T02:06:28;0.00;;;0.00;;
147;SDS011;142;50.652;12.216;2023-03-12T02:09:00;0.00;;;0.00;;
147;SDS011;142;50.652;12.216;2023-03-12T02:11:28;0.00;;;0.00;;
147;SDS011;142;50.652;12.216;2023-03-12T02:13:57;0.00;;;0.00;;
147;SDS011;142;50.652;12.216;2023-03-12T02:16:25;0.00;;;0.00;;
147;SDS011;142;50.652;12.216;2023-03-12T02:18:53;0.00;;;0.00;;
147;SDS011;142;50.652;12.216;2023-03-12T02:21:23;0.00;;;0.00;;
147;SDS011;142;50.652;12.216;2023-03-12T02:23:55;0.20;;;0.10;;
147;SDS011;142;50.652;12.216;2023-03-12T02:26:30;0.00;;;0.00;;
147;SDS011;142;50.652;12.216;2023-03-12T02:28:59;0.00;;;0.00;;
147;SDS011;142;50.652;12.216;2023-03-12T02:31:27;0.00;;;0.00;;
147;SDS011;142;50.652;12.216;2023-03-12T02:33:58;0.00;;;0.00;;
147;SDS011;142;50.652;12.216;2023-03-12T02:36:25;0.00;;;0.00;;
147;SDS011;142;50.652;12.216;2023-03-12T02:38:53;0.00;;;0.00;;
147;SDS011;142;50.652;12.216;2023-03-12T02:41:22;0.00;;;0.00;;
147;SDS011;142;50.652;12.216;2023-03-12T02:43:55;0.00;;;0.00;;
147;SDS011;142;50.652;12.216;2023-03-12T02:46:27;0.00;;;0.00;;
147;SDS011;142;50.652;12.216;2023-03-12T02:48:57;0.00;;;0.00;;
147;SDS011;142;50.652;12.216;2023-03-12T02:51:24;0.00;;;0.00;;
147;SDS011;142;50.652;12.216;2023-03-12T02:53:52;0.00;;;0.00;;
147;SDS011;142;50.652;12.216;2023-03-12T02:56:20;0.00;;;0.00;;
147;SDS011;142;50.652;12.216;2023-03-12T02:58:48;0.00;;;0.00;;
147;SDS011;142;50.652;12.216;2023-03-12T03:01:17;0.00;;;0.00;;
147;SDS011;142;50.652;12.216;2023-03-12T03:03:45;0.00;;;0.00;;
147;SDS011;142;50.652;12.216;2023-03-12T03:06:13;0.00;;;0.00;;
147;SDS011;142;50.652;12.216;2023-03-12T03:08:41;0.00;;;0.00;;
147;SDS011;142;50.652;12.216;2023-03-12T03:11:09;0.00;;;0.00;;
147;SDS011;142;50.652;12.216;2023-03-12T03:13:36;0.05;;;0.03;;
147;SDS011;142;50.652;12.216;2023-03-12T03:16:04;0.00;;;0.00;;
147;SDS011;142;50.652;12.216;2023-03-12T03:18:33;0.00;;;0.00;;
147;SDS011;142;50.652;12.216;2023-03-12T03:21:01;0.00;;;0.00;;
147;SDS011;142;50.652;12.216;2023-03-12T03:23:31;0.00;;;0.00;;
147;SDS011;142;50.652;12.216;2023-03-12T03:25:58;0.00;;;0.00;;
147;SDS011;142;50.652;12.216;2023-03-12T03:28:26;0.00;;;0.00;;
147;SDS011;142;50.652;12.216;2023-03-12T03:30:56;0.00;;;0.00;;
147;SDS011;142;50.652;12.216;2023-03-12T03:33:25;0.00;;;0.00;;
147;SDS011;142;50.652;12.216;2023-03-12T03:35:54;0.00;;;0.00;;
147;SDS011;142;50.652;12.216;2023-03-12T03:38:23;0.00;;;0.00;;
147;SDS011;142;50.652;12.216;2023-03-12T03:40:51;0.00;;;0.00;;
147;SDS011;142;50.652;12.216;2023-03-12T03:43:18;0.00;;;0.00;;
147;SDS011;142;50.652;12.216;2023-03-12T03:45:46;0.20;;;0.10;;
147;SDS011;142;50.652;12.216;2023-03-12T03:48:13;0.00;;;0.00;;
147;SDS011;142;50.652;12.216;2023-03-12T03:50:41;0.00;;;0.00;;
147;SDS011;142;50.652;12.216;2023-03-12T03:53:09;0.00;;;0.00;;
147;SDS011;142;50.652;12.216;2023-03-12T03:55:37;0.00;;;0.00;;
147;SDS011;142;50.652;12.216;2023-03-12T03:58:05;0.00;;;0.00;;
147;SDS011;142;50.652;12.216;2023-03-12T04:00:32;0.00;;;0.00;;
147;SDS011;142;50.652;12.216;2023-03-12T04:02:59;0.00;;;0.00;;
147;SDS011;142;50.652;12.216;2023-03-12T04:05:27;0.00;;;0.00;;
147;SDS011;142;50.652;12.216;2023-03-12T04:07:54;0.00;;;0.00;;
147;SDS011;142;50.652;12.216;2023-03-12T04:10:28;0.00;;;0.00;;
147;SDS011;142;50.652;12.216;2023-03-12T04:12:56;0.00;;;0.00;;
147;SDS011;142;50.652;12.216;2023-03-12T04:15:24;0.00;;;0.00;;
147;SDS011;142;50.652;12.216;2023-03-12T04:17:50;0.00;;;0.00;;
147;SDS011;142;50.652;12.216;2023-03-12T04:20:18;0.00;;;0.00;;
147;SDS011;142;50.652;12.216;2023-03-12T04:22:45;0.00;;;0.00;;
147;SDS011;142;50.652;12.216;2023-03-12T04:25:12;0.00;;;0.00;;
147;SDS011;142;50.652;12.216;2023-03-12T04:27:41;0.00;;;0.00;;
147;SDS011;142;50.652;12.216;2023-03-12T04:30:08;0.00;;;0.00;;
147;SDS011;142;50.652;12.216;2023-03-12T04:32:36;0.00;;;0.00;;
147;SDS011;142;50.652;12.216;2023-03-12T04:35:04;0.00;;;0.00;;
147;SDS011;142;50.652;12.216;2023-03-12T04:37:31;0.00;;;0.00;;
147;SDS011;142;50.652;12.216;2023-03-12T04:39:59;0.00;;;0.00;;
147;SDS011;142;50.652;12.216;2023-03-12T04:42:30;0.00;;;0.00;;
147;SDS011;142;50.652;12.216;2023-03-12T04:44:58;0.00;;;0.00;;
147;SDS011;142;50.652;12.216;2023-03-12T04:47:26;0.00;;;0.00;;
147;SDS011;142;50.652;12.216;2023-03-12T04:49:53;0.00;;;0.00;;
147;SDS011;142;50.652;12.216;2023-03-12T04:52:20;0.00;;;0.00;;
147;SDS011;142;50.652;12.216;2023-03-12T04:54:47;0.00;;;0.00;;
147;SDS011;142;50.652;12.216;2023-03-12T04:57:15;0.00;;;0.00;;
147;SDS011;142;50.652;12.216;2023-03-12T04:59:42;0.00;;;0.00;;
147;SDS011;142;50.652;12.216;2023-03-12T05:02:10;0.00;;;0.00;;
147;SDS011;142;50.652;12.216;2023-03-12T05:04:37;0.00;;;0.00;;
147;SDS011;142;50.652;12.216;2023-03-12T05:07:05;0.00;;;0.00;;
147;SDS011;142;50.652;12.216;2023-03-12T05:09:32;0.00;;;0.00;;
147;SDS011;142;50.652;12.216;2023-03-12T05:11:59;0.00;;;0.00;;
147;SDS011;142;50.652;12.216;2023-03-12T05:14:26;0.00;;;0.00;;
147;SDS011;142;50.652;12.216;2023-03-12T05:16:54;0.00;;;0.00;;
147;SDS011;142;50.652;12.216;2023-03-12T05:19:23;0.00;;;0.00;;
147;SDS011;142;50.652;12.216;2023-03-12T05:21:50;0.00;;;0.00;;
147;SDS011;142;50.652;12.216;2023-03-12T05:24:17;0.00;;;0.00;;
147;SDS011;142;50.652;12.216;2023-03-12T05:26:46;0.00;;;0.00;;
147;SDS011;142;50.652;12.216;2023-03-12T05:29:13;0.00;;;0.00;;
147;SDS011;142;50.652;12.216;2023-03-12T05:31:41;0.00;;;0.00;;
147;SDS011;142;50.652;12.216;2023-03-12T05:34:09;0.00;;;0.00;;
147;SDS011;142;50.652;12.216;2023-03-12T05:36:39;0.00;;;0.00;;
147;SDS011;142;50.652;12.216;2023-03-12T05:39:06;0.00;;;0.00;;
147;SDS011;142;50.652;12.216;2023-03-12T05:41:33;0.00;;;0.00;;
147;SDS011;142;50.652;12.216;2023-03-12T05:44:00;0.00;;;0.00;;
147;SDS011;142;50.652;12.216;2023-03-12T05:46:28;0.00;;;0.00;;
147;SDS011;142;50.652;12.216;2023-03-12T05:48:55;0.00;;;0.00;;
147;SDS011;142;50.652;12.216;2023-03-12T05:51:22;0.00;;;0.00;;
147;SDS011;142;50.652;12.216;2023-03-12T05:53:51;0.00;;;0.00;;
147;SDS011;142;50.652;12.216;2023-03-12T05:56:18;0.00;;;0.00;;
147;SDS011;142;50.652;12.216;2023-03-12T05:58:46;0.00;;;0.00;;
147;SDS011;142;50.652;12.216;2023-03-12T06:01:15;0.00;;;0.00;;
147;SDS011;142;50.652;12.216;2023-03-12T06:03:44;0.00;;;0.00;;
147;SDS011;142;50.652;12.216;2023-03-12T06:06:11;0.00;;;0.00;;
147;SDS011;142;50.652;12.216;2023-03-12T06:08:40;0.00;;;0.00;;
147;SDS011;142;50.652;12.216;2023-03-12T06:11:08;0.20;;;0.10;;
147;SDS011;142;50.652;12.216;2023-03-12T06:13:36;0.00;;;0.00;;
147;SDS011;142;50.652;12.216;2023-03-12T06:16:03;0.00;;;0.00;;
147;SDS011;142;50.652;12.216;2023-03-12T06:18:33;0.00;;;0.00;;
147;SDS011;142;50.652;12.216;2023-03-12T06:21:08;0.00;;;0.00;;
147;SDS011;142;50.652;12.216;2023-03-12T06:23:36;0.00;;;0.00;;
147;SDS011;142;50.652;12.216;2023-03-12T06:26:04;0.00;;;0.00;;
147;SDS011;142;50.652;12.216;2023-03-12T06:28:34;0.00;;;0.00;;
147;SDS011;142;50.652;12.216;2023-03-12T06:31:01;0.00;;;0.00;;
147;SDS011;142;50.652;12.216;2023-03-12T06:33:29;0.00;;;0.00;;
147;SDS011;142;50.652;12.216;2023-03-12T06:35:57;0.00;;;0.00;;
147;SDS011;142;50.652;12.216;2023-03-12T06:38:27;0.00;;;0.00;;
147;SDS011;142;50.652;12.216;2023-03-12T06:40:55;0.00;;;0.00;;
147;SDS011;142;50.652;12.216;2023-03-12T06:43:24;0.00;;;0.00;;
147;SDS011;142;50.652;12.216;2023-03-12T06:45:55;0.00;;;0.00;;
147;SDS011;142;50.652;12.216;2023-03-12T06:48:24;0.00;;;0.00;;
147;SDS011;142;50.652;12.216;2023-03-12T06:50:52;0.00;;;0.00;;
147;SDS011;142;50.652;12.216;2023-03-12T06:53:20;0.00;;;0.00;;
147;SDS011;142;50.652;12.216;2023-03-12T06:55:49;0.00;;;0.00;;
147;SDS011;142;50.652;12.216;2023-03-12T06:58:17;0.00;;;0.00;;
147;SDS011;142;50.652;12.216;2023-03-12T07:00:44;0.00;;;0.00;;
147;SDS011;142;50.652;12.216;2023-03-12T07:03:12;0.00;;;0.00;;
147;SDS011;142;50.652;12.216;2023-03-12T07:05:42;0.00;;;0.00;;
147;SDS011;142;50.652;12.216;2023-03-12T07:08:10;0.00;;;0.00;;
147;SDS011;142;50.652;12.216;2023-03-12T07:10:37;0.20;;;0.10;;
147;SDS011;142;50.652;12.216;2023-03-12T07:13:04;0.00;;;0.00;;
147;SDS011;142;50.652;12.216;2023-03-12T07:15:32;0.20;;;0.10;;
147;SDS011;142;50.652;12.216;2023-03-12T07:17:59;0.00;;;0.00;;
147;SDS011;142;50.652;12.216;2023-03-12T07:20:30;0.00;;;0.00;;
147;SDS011;142;50.652;12.216;2023-03-12T07:22:57;0.00;;;0.00;;
147;SDS011;142;50.652;12.216;2023-03-12T07:25:25;0.00;;;0.00;;
147;SDS011;142;50.652;12.216;2023-03-12T07:27:52;0.00;;;0.00;;
147;SDS011;142;50.652;12.216;2023-03-12T07:30:19;0.20;;;0.10;;
147;SDS011;142;50.652;12.216;2023-03-12T07:32:47;0.00;;;0.00;;
147;SDS011;142;50.652;12.216;2023-03-12T07:35:14;0.00;;;0.00;;
147;SDS011;142;50.652;12.216;2023-03-12T07:37:43;0.00;;;0.00;;
147;SDS011;142;50.652;12.216;2023-03-12T07:40:11;0.00;;;0.00;;
147;SDS011;142;50.652;12.216;2023-03-12T07:42:38;0.00;;;0.00;;
147;SDS011;142;50.652;12.216;2023-03-12T07:45:06;0.00;;;0.00;;
147;SDS011;142;50.652;12.216;2023-03-12T07:47:34;0.00;;;0.00;;
147;SDS011;142;50.652;12.216;2023-03-12T07:50:01;0.20;;;0.10;;
147;SDS011;142;50.652;12.216;2023-03-12T07:52:28;0.00;;;0.00;;
147;SDS011;142;50.652;12.216;2023-03-12T07:54:57;0.00;;;0.00;;
147;SDS011;142;50.652;12.216;2023-03-12T07:57:24;0.00;;;0.00;;
147;SDS011;142;50.652;12.216;2023-03-12T07:59:53;0.20;;;0.10;;
147;SDS011;142;50.652;12.216;2023-03-12T08:02:20;0.00;;;0.00;;
147;SDS011;142;50.652;12.216;2023-03-12T08:04:47;0.00;;;0.00;;
147;SDS011;142;50.652;12.216;2023-03-12T08:07:14;0.00;;;0.00;;
147;SDS011;142;50.652;12.216;2023-03-12T08:09:42;0.00;;;0.00;;
147;SDS011;142;50.652;12.216;2023-03-12T08:12:11;0.00;;;0.00;;
147;SDS011;142;50.652;12.216;2023-03-12T08:14:38;0.00;;;0.00;;
147;SDS011;142;50.652;12.216;2023-03-12T08:17:05;0.20;;;0.10;;
147;SDS011;142;50.652;12.216;2023-03-12T08:19:32;0.00;;;0.00;;
147;SDS011;142;50.652;12.216;2023-03-12T08:22:00;0.00;;;0.00;;
147;SDS011;142;50.652;12.216;2023-03-12T08:24:27;0.20;;;0.10;;
147;SDS011;142;50.652;12.216;2023-03-12T08:26:54;0.07;;;0.03;;
147;SDS011;142;50.652;12.216;2023-03-12T08:29:23;0.20;;;0.10;;
147;SDS011;142;50.652;12.216;2023-03-12T08:31:50;0.00;;;0.00;;
147;SDS011;142;50.652;12.216;2023-03-12T08:34:17;0.00;;;0.00;;
147;SDS011;142;50.652;12.216;2023-03-12T08:36:44;0.20;;;0.10;;
147;SDS011;142;50.652;12.216;2023-03-12T08:39:12;0.00;;;0.00;;
147;SDS011;142;50.652;12.216;2023-03-12T08:41:40;0.00;;;0.00;;
147;SDS011;142;50.652;12.216;2023-03-12T08:44:07;0.00;;;0.00;;
147;SDS011;142;50.652;12.216;2023-03-12T08:46:35;0.00;;;0.00;;
147;SDS011;142;50.652;12.216;2023-03-12T08:49:06;0.20;;;0.10;;
147;SDS011;142;50.652;12.216;2023-03-12T08:51:33;0.00;;;0.00;;
147;SDS011;142;50.652;12.216;2023-03-12T08:54:00;0.20;;;0.10;;
147;SDS011;142;50.652;12.216;2023-03-12T08:56:29;0.00;;;0.00;;
147;SDS011;142;50.652;12.216;2023-03-12T08:58:56;0.23;;;0.13;;
147;SDS011;142;50.652;12.216;2023-03-12T09:01:24;0.30;;;0.20;;
147;SDS011;142;50.652;12.216;2023-03-12T09:03:53;0.00;;;0.00;;
147;SDS011;142;50.652;12.216;2023-03-12T09:06:21;0.00;;;0.00;;
147;SDS011;142;50.652;12.216;2023-03-12T09:08:48;0.13;;;0.07;;
147;SDS011;142;50.652;12.216;2023-03-12T09:11:17;0.20;;;0.10;;
147;SDS011;142;50.652;12.216;2023-03-12T09:13:46;0.00;;;0.00;;
147;SDS011;142;50.652;12.216;2023-03-12T09:16:13;0.20;;;0.10;;
147;SDS011;142;50.652;12.216;2023-03-12T09:18:41;0.00;;;0.00;;
147;SDS011;142;50.652;12.216;2023-03-12T09:21:10;0.00;;;0.00;;
147;SDS011;142;50.652;12.216;2023-03-12T09:23:37;0.20;;;0.10;;
147;SDS011;142;50.652;12.216;2023-03-12T09:26:07;0.00;;;0.00;;
147;SDS011;142;50.652;12.216;2023-03-12T09:28:35;0.00;;;0.00;;
147;SDS011;142;50.652;12.216;2023-03-12T09:31:03;0.00;;;0.00;;
147;SDS011;142;50.652;12.216;2023-03-12T09:33:31;0.20;;;0.10;;
147;SDS011;142;50.652;12.216;2023-03-12T09:36:00;0.20;;;0.10;;
147;SDS011;142;50.652;12.216;2023-03-12T09:38:29;0.20;;;0.10;;
147;SDS011;142;50.652;12.216;2023-03-12T09:40:59;0.20;;;0.10;;
147;SDS011;142;50.652;12.216;2023-03-12T09:43:31;0.00;;;0.00;;
147;SDS011;142;50.652;12.216;2023-03-12T09:46:02;0.20;;;0.10;;
147;SDS011;142;50.652;12.216;2023-03-12T09:48:34;0.00;;;0.00;;
147;SDS011;142;50.652;12.216;2023-03-12T09:51:04;0.20;;;0.10;;
147;SDS011;142;50.652;12.216;2023-03-12T09:53:41;0.30;;;0.20;;
147;SDS011;142;50.652;12.216;2023-03-12T09:56:13;0.00;;;0.00;;
147;SDS011;142;50.652;12.216;2023-03-12T09:58:43;0.30;;;0.20;;
147;SDS011;142;50.652;12.216;2023-03-12T10:01:18;0.00;;;0.00;;
147;SDS011;142;50.652;12.216;2023-03-12T10:04:02;0.20;;;0.10;;
147;SDS011;142;50.652;12.216;2023-03-12T10:06:50;0.20;;;0.10;;
147;SDS011;142;50.652;12.216;2023-03-12T10:09:32;0.30;;;0.20;;
147;SDS011;142;50.652;12.216;2023-03-12T10:12:18;0.20;;;0.10;;
147;SDS011;142;50.652;12.216;2023-03-12T10:14:58;0.20;;;0.10;;
147;SDS011;142;50.652;12.216;2023-03-12T10:17:49;0.20;;;0.10;;
147;SDS011;142;50.652;12.216;2023-03-12T10:20:40;0.20;;;0.10;;
147;SDS011;142;50.652;12.216;2023-03-12T10:23:28;0.20;;;0.10;;
147;SDS011;142;50.652;12.216;2023-03-12T10:26:06;0.33;;;0.23;;
147;SDS011;142;50.652;12.216;2023-03-12T10:28:41;0.20;;;0.10;;
147;SDS011;142;50.652;12.216;2023-03-12T10:31:13;0.20;;;0.10;;
147;SDS011;142;50.652;12.216;2023-03-12T10:33:46;0.20;;;0.10;;
147;SDS011;142;50.652;12.216;2023-03-12T10:36:17;0.20;;;0.10;;
147;SDS011;142;50.652;12.216;2023-03-12T10:38:47;0.20;;;0.10;;
147;SDS011;142;50.652;12.216;2023-03-12T10:41:16;0.30;;;0.20;;
147;SDS011;142;50.652;12.216;2023-03-12T10:43:45;0.20;;;0.10;;
147;SDS011;142;50.652;12.216;2023-03-12T10:46:27;0.20;;;0.10;;
147;SDS011;142;50.652;12.216;2023-03-12T10:49:27;0.30;;;0.20;;
147;SDS011;142;50.652;12.216;2023-03-12T10:51:57;0.00;;;0.00;;
147;SDS011;142;50.652;12.216;2023-03-12T10:54:28;0.20;;;0.10;;
147;SDS011;142;50.652;12.216;2023-03-12T10:56:58;0.20;;;0.10;;
147;SDS011;142;50.652;12.216;2023-03-12T10:59:27;0.30;;;0.20;;
147;SDS011;142;50.652;12.216;2023-03-12T11:01:57;0.20;;;0.10;;
147;SDS011;142;50.652;12.216;2023-03-12T11:04:26;0.20;;;0.10;;
147;SDS011;142;50.652;12.216;2023-03-12T11:07:02;0.27;;;0.17;;
147;SDS011;142;50.652;12.216;2023-03-12T11:09:43;0.27;;;0.17;;
147;SDS011;142;50.652;12.216;2023-03-12T11:12:22;0.20;;;0.10;;
147;SDS011;142;50.652;12.216;2023-03-12T11:14:51;0.20;;;0.10;;
147;SDS011;142;50.652;12.216;2023-03-12T11:17:19;0.20;;;0.10;;
147;SDS011;142;50.652;12.216;2023-03-12T11:19:50;0.23;;;0.13;;
147;SDS011;142;50.652;12.216;2023-03-12T11:22:28;0.20;;;0.10;;
147;SDS011;142;50.652;12.216;2023-03-12T11:24:58;0.40;;;0.30;;
147;SDS011;142;50.652;12.216;2023-03-12T11:27:31;0.20;;;0.10;;
147;SDS011;142;50.652;12.216;2023-03-12T11:30:04;0.20;;;0.10;;
147;SDS011;142;50.652;12.216;2023-03-12T11:32:36;0.20;;;0.10;;
147;SDS011;142;50.652;12.216;2023-03-12T11:35:08;0.20;;;0.10;;
147;SDS011;142;50.652;12.216;2023-03-12T11:37:39;0.20;;;0.10;;
147;SDS011;142;50.652;12.216;2023-03-12T11:40:26;0.00;;;0.00;;
147;SDS011;142;50.652;12.216;2023-03-12T11:43:13;0.20;;;0.10;;
147;SDS011;142;50.652;12.216;2023-03-12T11:45:56;0.20;;;0.10;;
147;SDS011;142;50.652;12.216;2023-03-12T11:48:34;0.20;;;0.10;;
147;SDS011;142;50.652;12.216;2023-03-12T11:51:12;0.20;;;0.10;;
147;SDS011;142;50.652;12.216;2023-03-12T11:53:57;0.20;;;0.10;;
147;SDS011;142;50.652;12.216;2023-03-12T11:56:32;0.20;;;0.10;;
147;SDS011;142;50.652;12.216;2023-03-12T11:59:11;0.20;;;0.10;;
147;SDS011;142;50.652;12.216;2023-03-12T12:01:58;0.30;;;0.20;;
147;SDS011;142;50.652;12.216;2023-03-12T12:04:41;0.20;;;0.10;;
147;SDS011;142;50.652;12.216;2023-03-12T12:07:33;0.20;;;0.10;;
147;SDS011;142;50.652;12.216;2023-03-12T12:10:12;0.20;;;0.10;;
147;SDS011;142;50.652;12.216;2023-03-12T12:12:49;0.30;;;0.20;;
147;SDS011;142;50.652;12.216;2023-03-12T12:15:30;0.20;;;0.10;;
147;SDS011;142;50.652;12.216;2023-03-12T12:18:09;0.20;;;0.10;;
147;SDS011;142;50.652;12.216;2023-03-12T12:20:50;0.20;;;0.10;;
147;SDS011;142;50.652;12.216;2023-03-12T12:23:27;0.27;;;0.17;;
147;SDS011;142;50.652;12.216;2023-03-12T12:26:05;0.20;;;0.10;;
147;SDS011;142;50.652;12.216;2023-03-12T12:28:38;0.20;;;0.10;;
147;SDS011;142;50.652;12.216;2023-03-12T12:31:25;0.20;;;0.10;;
147;SDS011;142;50.652;12.216;2023-03-12T12:36:55;0.20;;;0.10;;
147;SDS011;142;50.652;12.216;2023-03-12T12:39:29;0.00;;;0.00;;
147;SDS011;142;50.652;12.216;2023-03-12T12:42:01;0.20;;;0.10;;
147;SDS011;142;50.652;12.216;2023-03-12T12:44:32;0.20;;;0.10;;
147;SDS011;142;50.652;12.216;2023-03-12T12:47:03;0.20;;;0.10;;
147;SDS011;142;50.652;12.216;2023-03-12T12:49:38;0.30;;;0.20;;
147;SDS011;142;50.652;12.216;2023-03-12T12:52:10;0.30;;;0.20;;
147;SDS011;142;50.652;12.216;2023-03-12T12:54:41;0.20;;;0.10;;
147;SDS011;142;50.652;12.216;2023-03-12T12:57:21;0.20;;;0.10;;
147;SDS011;142;50.652;12.216;2023-03-12T12:59:59;0.20;;;0.10;;
147;SDS011;142;50.652;12.216;2023-03-12T13:02:39;0.20;;;0.10;;
147;SDS011;142;50.652;12.216;2023-03-12T13:05:16;0.20;;;0.10;;
147;SDS011;142;50.652;12.216;2023-03-12T13:07:46;0.23;;;0.13;;
147;SDS011;142;50.652;12.216;2023-03-12T13:13:11;0.30;;;0.20;;
147;SDS011;142;50.652;12.216;2023-03-12T13:15:43;0.30;;;0.20;;
147;SDS011;142;50.652;12.216;2023-03-12T13:18:20;0.27;;;0.17;;
147;SDS011;142;50.652;12.216;2023-03-12T13:21:05;0.20;;;0.10;;
147;SDS011;142;50.652;12.216;2023-03-12T13:23:49;0.20;;;0.10;;
147;SDS011;142;50.652;12.216;2023-03-12T13:26:25;0.20;;;0.10;;
147;SDS011;142;50.652;12.216;2023-03-12T13:29:01;0.37;;;0.27;;
147;SDS011;142;50.652;12.216;2023-03-12T13:31:44;0.20;;;0.10;;
147;SDS011;142;50.652;12.216;2023-03-12T13:34:30;0.30;;;0.20;;
147;SDS011;142;50.652;12.216;2023-03-12T13:43:30;0.20;;;0.10;;
147;SDS011;142;50.652;12.216;2023-03-12T13:46:07;0.20;;;0.10;;
147;SDS011;142;50.652;12.216;2023-03-12T13:48:46;0.20;;;0.10;;
147;SDS011;142;50.652;12.216;2023-03-12T13:51:16;0.23;;;0.13;;
147;SDS011;142;50.652;12.216;2023-03-12T13:53:46;0.20;;;0.10;;
147;SDS011;142;50.652;12.216;2023-03-12T13:56:16;0.20;;;0.10;;
147;SDS011;142;50.652;12.216;2023-03-12T13:58:47;0.30;;;0.20;;
147;SDS011;142;50.652;12.216;2023-03-12T14:01:16;0.13;;;0.07;;
147;SDS011;142;50.652;12.216;2023-03-12T14:03:45;0.30;;;0.20;;
147;SDS011;142;50.652;12.216;2023-03-12T14:06:17;0.20;;;0.10;;
147;SDS011;142;50.652;12.216;2023-03-12T14:08:50;0.30;;;0.20;;
147;SDS011;142;50.652;12.216;2023-03-12T14:11:32;0.20;;;0.10;;
147;SDS011;142;50.652;12.216;2023-03-12T14:14:11;0.20;;;0.10;;
147;SDS011;142;50.652;12.216;2023-03-12T14:16:56;0.30;;;0.20;;
147;SDS011;142;50.652;12.216;2023-03-12T14:19:26;0.20;;;0.10;;
147;SDS011;142;50.652;12.216;2023-03-12T14:21:58;0.20;;;0.10;;
147;SDS011;142;50.652;12.216;2023-03-12T14:24:29;0.23;;;0.13;;
147;SDS011;142;50.652;12.216;2023-03-12T14:26:59;0.20;;;0.10;;
147;SDS011;142;50.652;12.216;2023-03-12T14:29:30;0.00;;;0.00;;
147;SDS011;142;50.652;12.216;2023-03-12T14:32:03;0.30;;;0.20;;
147;SDS011;142;50.652;12.216;2023-03-12T14:34:33;0.30;;;0.20;;
147;SDS011;142;50.652;12.216;2023-03-12T14:37:08;0.23;;;0.13;;
147;SDS011;142;50.652;12.216;2023-03-12T14:39:40;0.20;;;0.10;;
147;SDS011;142;50.652;12.216;2023-03-12T14:42:13;0.20;;;0.10;;
147;SDS011;142;50.652;12.216;2023-03-12T14:44:53;0.20;;;0.10;;
147;SDS011;142;50.652;12.216;2023-03-12T14:47:23;0.30;;;0.20;;
147;SDS011;142;50.652;12.216;2023-03-12T14:49:50;0.20;;;0.10;;
147;SDS011;142;50.652;12.216;2023-03-12T14:52:24;0.20;;;0.10;;
147;SDS011;142;50.652;12.216;2023-03-12T14:54:56;0.20;;;0.10;;
147;SDS011;142;50.652;12.216;2023-03-12T14:57:26;0.20;;;0.10;;
147;SDS011;142;50.652;12.216;2023-03-12T14:59:56;0.20;;;0.10;;
147;SDS011;142;50.652;12.216;2023-03-12T15:02:25;0.20;;;0.10;;
147;SDS011;142;50.652;12.216;2023-03-12T15:04:54;0.23;;;0.13;;
147;SDS011;142;50.652;12.216;2023-03-12T15:07:26;0.20;;;0.10;;
147;SDS011;142;50.652;12.216;2023-03-12T15:09:57;0.20;;;0.10;;
147;SDS011;142;50.652;12.216;2023-03-12T15:12:25;0.20;;;0.10;;
147;SDS011;142;50.652;12.216;2023-03-12T15:14:55;0.20;;;0.10;;
147;SDS011;142;50.652;12.216;2023-03-12T15:17:31;0.00;;;0.00;;
147;SDS011;142;50.652;12.216;2023-03-12T15:20:00;0.30;;;0.20;;
147;SDS011;142;50.652;12.216;2023-03-12T15:22:34;0.20;;;0.10;;
147;SDS011;142;50.652;12.216;2023-03-12T15:25:04;0.20;;;0.10;;
147;SDS011;142;50.652;12.216;2023-03-12T15:27:47;0.20;;;0.10;;
147;SDS011;142;50.652;12.216;2023-03-12T15:30:21;0.20;;;0.10;;
147;SDS011;142;50.652;12.216;2023-03-12T15:33:06;0.00;;;0.00;;
147;SDS011;142;50.652;12.216;2023-03-12T15:35:34;0.23;;;0.13;;
147;SDS011;142;50.652;12.216;2023-03-12T15:38:04;0.20;;;0.10;;
147;SDS011;142;50.652;12.216;2023-03-12T15:40:39;0.20;;;0.10;;
147;SDS011;142;50.652;12.216;2023-03-12T15:43:13;0.20;;;0.10;;
147;SDS011;142;50.652;12.216;2023-03-12T15:45:42;0.20;;;0.10;;
147;SDS011;142;50.652;12.216;2023-03-12T15:48:22;0.20;;;0.10;;
147;SDS011;142;50.652;12.216;2023-03-12T15:50:52;0.20;;;0.10;;
147;SDS011;142;50.652;12.216;2023-03-12T15:53:25;0.20;;;0.10;;
147;SDS011;142;50.652;12.216;2023-03-12T15:56:00;0.20;;;0.10;;
147;SDS011;142;50.652;12.216;2023-03-12T15:58:30;0.20;;;0.10;;
147;SDS011;142;50.652;12.216;2023-03-12T16:01:04;0.20;;;0.10;;
147;SDS011;142;50.652;12.216;2023-03-12T16:03:35;0.00;;;0.00;;
147;SDS011;142;50.652;12.216;2023-03-12T16:06:08;0.20;;;0.10;;
147;SDS011;142;50.652;12.216;2023-03-12T16:08:42;0.00;;;0.00;;